createdAt,value
2022-08-19T00:01:06.340Z,97508.86
2022-08-19T00:04:43.358Z,97508.14
2022-08-19T00:08:19.664Z,97504.48
2022-08-19T00:11:58.786Z,97506.63
2022-08-19T00:15:33.708Z,97501.09
2022-08-19T00:19:10.629Z,97500.86
2022-08-19T00:23:05.898Z,97503.10
2022-08-19T00:26:47.784Z,97506.15
2022-08-19T00:30:11.363Z,97504.35
2022-08-19T00:33:51.517Z,97500.39
2022-08-19T00:37:26.562Z,97500.45
2022-08-19T00:40:59.914Z,97503.88
2022-08-19T00:44:36.542Z,97499.44
2022-08-19T00:48:34.271Z,97492.90
2022-08-19T00:52:13.425Z,97491.88
2022-08-19T00:55:58.586Z,97493.88
2022-08-19T01:00:00.752Z,97487.31
2022-08-19T01:03:23.381Z,97485.48
2022-08-19T01:07:00.117Z,97481.91
2022-08-19T01:10:44.536Z,97478.06
2022-08-19T01:14:31.968Z,97471.80
2022-08-19T01:17:56.737Z,97468.02
2022-08-19T01:21:48.458Z,97468.28
2022-08-19T01:25:15.098Z,97460.70
2022-08-19T01:28:50.656Z,97460.58
2022-08-19T01:32:33.812Z,97461.56
2022-08-19T01:36:47.665Z,97458.14
2022-08-19T01:40:13.749Z,97454.39
2022-08-19T01:44:17.217Z,97450.70
2022-08-19T01:47:41.381Z,97452.91
2022-08-19T01:51:18.849Z,97451.39
2022-08-19T01:54:54.833Z,97448.94
2022-08-19T01:59:01.338Z,97448.92
2022-08-19T02:02:44.310Z,97448.63
2022-08-19T02:06:06.341Z,97444.34
2022-08-19T02:09:43.431Z,97442.55
2022-08-19T02:13:38.437Z,97436.98
2022-08-19T02:17:00.288Z,97432.73
2022-08-19T02:20:55.706Z,97421.69
2022-08-19T02:24:36.962Z,97416.24
2022-08-19T02:28:18.957Z,97414.46
2022-08-19T02:31:59.883Z,97415.91
2022-08-19T02:35:22.271Z,97418.85
2022-08-19T02:38:58.555Z,97419.70
2022-08-19T02:42:35.128Z,97422.36
2022-08-19T02:46:21.985Z,97426.49
2022-08-19T02:50:08.186Z,97432.33
2022-08-19T02:53:30.868Z,97429.33
2022-08-19T02:57:07.278Z,97429.21
2022-08-19T03:00:54.262Z,97433.75
2022-08-19T03:04:20.556Z,97435.05
2022-08-19T03:07:56.977Z,97438.52
2022-08-19T03:11:34.665Z,97441.08
2022-08-19T03:15:30.605Z,97440.30
2022-08-19T03:18:53.898Z,97443.16
2022-08-19T03:22:48.175Z,97444.83
2022-08-19T03:26:16.431Z,97447.23
2022-08-19T03:29:46.719Z,97448.41
2022-08-19T03:33:28.534Z,97453.52
2022-08-19T03:37:09.002Z,97452.98
2022-08-19T03:40:39.659Z,97450.03
2022-08-19T03:44:17.060Z,97447.33
2022-08-19T03:47:50.475Z,97446.34
2022-08-19T03:51:31.930Z,97449.95
2022-08-19T03:55:04.655Z,97450.41
2022-08-19T03:58:41.422Z,97449.04
2022-08-19T04:02:18.465Z,97444.66
2022-08-19T04:05:54.829Z,97439.21
2022-08-19T04:09:37.580Z,97444.63
2022-08-19T04:13:10.063Z,97458.57
2022-08-19T04:16:47.119Z,97455.92
2022-08-19T04:20:21.748Z,97454.02
2022-08-19T04:23:58.841Z,97456.86
2022-08-19T04:27:35.394Z,97464.94
2022-08-19T04:31:17.537Z,97479.38
2022-08-19T04:35:01.436Z,97480.35
2022-08-19T04:38:31.515Z,97479.36
2022-08-19T04:42:30.742Z,97490.77
2022-08-19T04:45:56.442Z,97498.13
2022-08-19T04:49:31.083Z,97495.23
2022-08-19T04:53:07.021Z,97493.23
2022-08-19T04:56:44.453Z,97503.40
2022-08-19T05:00:20.593Z,97507.81
2022-08-19T05:03:59.519Z,97514.66
2022-08-19T05:07:34.143Z,97516.59
2022-08-19T05:11:15.465Z,97522.45
2022-08-19T05:14:48.377Z,97526.52
2022-08-19T05:18:44.129Z,97517.02
2022-08-19T05:22:24.914Z,97514.46
2022-08-19T05:25:46.822Z,97510.33
2022-08-19T05:29:42.785Z,97517.30
2022-08-19T05:33:04.543Z,97518.48
2022-08-19T05:37:02.655Z,97507.05
2022-08-19T05:40:24.021Z,97506.27
2022-08-19T05:44:07.566Z,97505.58
2022-08-19T05:47:42.139Z,97505.73
2022-08-19T05:51:14.462Z,97516.83
2022-08-19T05:54:52.104Z,97521.43
2022-08-19T05:58:28.146Z,97518.65
2022-08-19T06:02:07.505Z,97517.63
2022-08-19T06:05:49.571Z,97516.57
2022-08-19T06:09:37.738Z,97525.40
2022-08-19T06:13:19.882Z,97524.86
2022-08-19T06:16:42.959Z,97526.16
2022-08-19T06:20:34.403Z,97522.63
2022-08-19T06:24:01.534Z,97524.49
2022-08-19T06:27:48.327Z,97528.03
2022-08-19T06:31:18.867Z,97525.95
2022-08-19T06:34:52.756Z,97536.59
2022-08-19T06:38:29.365Z,97539.38
2022-08-19T06:42:11.026Z,97543.02
2022-08-19T06:45:43.441Z,97538.52
2022-08-19T06:49:38.839Z,97541.89
2022-08-19T06:53:04.454Z,97546.40
2022-08-19T06:56:39.165Z,97540.18
2022-08-19T07:00:15.141Z,97542.67
2022-08-19T07:03:51.243Z,97535.41
2022-08-19T07:07:28.073Z,97544.05
2022-08-19T07:11:13.974Z,97549.70
2022-08-19T07:14:42.113Z,97564.61
2022-08-19T07:18:21.140Z,97573.67
2022-08-19T07:21:56.109Z,97579.89
2022-08-19T07:25:53.104Z,97580.60
2022-08-19T07:29:16.492Z,97579.81
2022-08-19T07:32:53.169Z,97578.96
2022-08-19T07:36:32.655Z,97581.05
2022-08-19T07:40:24.848Z,97588.61
2022-08-19T07:43:47.075Z,97590.31
2022-08-19T07:47:48.215Z,97593.85
2022-08-19T07:51:09.166Z,97597.71
2022-08-19T07:54:42.599Z,97599.23
2022-08-19T07:58:41.998Z,97593.63
2022-08-19T08:02:05.553Z,97597.98
2022-08-19T08:05:59.436Z,97605.27
2022-08-19T08:09:29.527Z,97606.42
2022-08-19T08:13:09.576Z,97607.94
2022-08-19T08:16:55.021Z,97613.93
2022-08-19T08:20:35.584Z,97617.09
2022-08-19T08:23:57.648Z,97617.66
2022-08-19T08:27:57.029Z,97622.02
2022-08-19T08:31:20.442Z,97626.73
2022-08-19T08:34:55.782Z,97621.48
2022-08-19T08:38:39.167Z,97626.77
2022-08-19T08:42:35.358Z,97626.86
2022-08-19T08:46:38.506Z,97625.29
2022-08-19T08:50:12.218Z,97625.30
2022-08-19T08:53:41.783Z,97622.70
2022-08-19T08:57:24.847Z,97616.91
2022-08-19T09:00:51.059Z,97614.67
2022-08-19T09:04:28.480Z,97616.70
2022-08-19T09:08:14.960Z,97616.59
2022-08-19T09:11:57.506Z,97609.04
2022-08-19T09:15:33.521Z,97611.11
2022-08-19T09:19:06.480Z,97605.13
2022-08-19T09:22:37.982Z,97601.41
2022-08-19T09:26:22.951Z,97597.77
2022-08-19T09:29:49.919Z,97593.02
2022-08-19T09:33:26.314Z,97586.91
2022-08-19T09:37:22.761Z,97582.77
2022-08-19T09:40:46.503Z,97584.83
2022-08-19T09:44:23.471Z,97585.19
2022-08-19T09:48:23.556Z,97581.20
2022-08-19T09:52:04.279Z,97580.77
2022-08-19T09:55:45.380Z,97589.76
2022-08-19T09:59:07.009Z,97601.38
2022-08-19T10:02:44.760Z,97601.15
2022-08-19T10:06:40.626Z,97604.48
2022-08-19T10:10:10.405Z,97611.39
2022-08-19T10:13:42.319Z,97610.55
2022-08-19T10:17:37.620Z,97604.64
2022-08-19T10:21:09.500Z,97596.67
2022-08-19T10:24:36.500Z,97588.48
2022-08-19T10:28:13.042Z,97587.10
2022-08-19T10:32:01.314Z,97591.09
2022-08-19T10:35:28.846Z,97591.57
2022-08-19T10:39:08.584Z,97592.49
2022-08-19T10:42:59.937Z,97591.48
2022-08-19T10:46:26.579Z,97590.27
2022-08-19T10:50:17.098Z,97592.36
2022-08-19T10:53:39.452Z,97591.48
2022-08-19T10:57:16.636Z,97595.27
2022-08-19T11:00:58.617Z,97591.90
2022-08-19T11:04:29.884Z,97595.88
2022-08-19T11:08:27.065Z,97590.34
2022-08-19T11:11:48.696Z,97585.94
2022-08-19T11:15:44.375Z,97580.43
2022-08-19T11:19:08.952Z,97578.48
2022-08-19T11:22:43.293Z,97567.59
2022-08-19T11:26:21.998Z,97563.41
2022-08-19T11:29:57.060Z,97558.80
2022-08-19T11:33:33.726Z,97557.39
2022-08-19T11:37:10.527Z,97554.21
2022-08-19T11:40:54.465Z,97551.52
2022-08-19T11:44:23.952Z,97545.32
2022-08-19T11:48:00.673Z,97542.03
2022-08-19T11:51:37.717Z,97541.49
2022-08-19T11:55:14.631Z,97540.38
2022-08-19T11:58:58.550Z,97547.69
2022-08-19T12:02:27.930Z,97550.66
2022-08-19T12:06:14.945Z,97548.66
2022-08-19T12:10:00.932Z,97545.77
2022-08-19T12:13:23.497Z,97543.70
2022-08-19T12:17:00.072Z,97544.95
2022-08-19T12:20:39.079Z,97544.99
2022-08-19T12:24:14.373Z,97539.85
2022-08-19T12:27:57.361Z,97544.77
2022-08-19T12:31:29.498Z,97539.82
2022-08-19T12:35:05.185Z,97539.32
2022-08-19T12:39:00.106Z,97542.84
2022-08-19T12:42:23.711Z,97545.77
2022-08-19T12:46:18.955Z,97544.54
2022-08-19T12:49:52.488Z,97541.84
2022-08-19T12:53:16.902Z,97537.93
2022-08-19T12:57:12.682Z,97535.15
2022-08-19T13:00:34.251Z,97533.34
2022-08-19T13:04:30.285Z,97530.80
2022-08-19T13:07:55.850Z,97527.65
2022-08-19T13:11:33.389Z,97529.44
2022-08-19T13:15:10.756Z,97527.64
2022-08-19T13:18:42.881Z,97522.83
2022-08-19T13:22:19.019Z,97516.92
2022-08-19T13:26:14.298Z,97515.58
2022-08-19T13:29:54.615Z,97504.36
2022-08-19T13:33:17.465Z,97506.14
2022-08-19T13:36:54.547Z,97505.54
2022-08-19T13:40:34.718Z,97506.80
2022-08-19T13:44:07.672Z,97511.78
2022-08-19T13:47:59.707Z,97514.94
2022-08-19T13:51:43.952Z,97514.05
2022-08-19T13:55:25.606Z,97509.88
2022-08-19T13:59:06.897Z,97509.07
2022-08-19T14:02:28.977Z,97507.21
2022-08-19T14:06:05.338Z,97506.91
2022-08-19T14:09:42.207Z,97507.46
2022-08-19T14:13:37.790Z,97507.94
2022-08-19T14:17:19.830Z,97506.91
2022-08-19T14:20:42.715Z,97500.95
2022-08-19T14:24:18.848Z,97499.59
2022-08-19T14:27:57.166Z,97499.84
2022-08-19T14:31:50.671Z,97492.96
2022-08-19T14:35:15.836Z,97487.62
2022-08-19T14:38:49.944Z,97484.98
2022-08-19T14:42:28.758Z,97477.74
2022-08-19T14:46:02.798Z,97478.01
2022-08-19T14:49:44.798Z,97476.61
2022-08-19T14:53:17.413Z,97478.33
2022-08-19T14:57:15.043Z,97469.29
2022-08-19T15:00:37.218Z,97468.23
2022-08-19T15:04:13.787Z,97472.35
2022-08-19T15:07:50.353Z,97467.52
2022-08-19T15:11:28.736Z,97465.15
2022-08-19T15:15:05.746Z,97460.23
2022-08-19T15:18:45.043Z,97458.39
2022-08-19T15:22:17.988Z,97445.98
2022-08-19T15:25:55.967Z,97438.43
2022-08-19T15:29:33.263Z,97437.68
2022-08-19T15:33:08.440Z,97434.19
2022-08-19T15:37:05.618Z,97428.30
2022-08-19T15:40:28.198Z,97427.71
2022-08-19T15:44:23.296Z,97426.05
2022-08-19T15:47:45.266Z,97424.00
2022-08-19T15:51:26.393Z,97426.46
2022-08-19T15:54:58.727Z,97421.19
2022-08-19T15:58:54.416Z,97415.76
2022-08-19T16:02:37.970Z,97419.61
2022-08-19T16:06:20.843Z,97423.30
2022-08-19T16:09:42.872Z,97425.80
2022-08-19T16:13:20.530Z,97423.37
2022-08-19T16:17:16.178Z,97429.09
2022-08-19T16:20:38.319Z,97442.60
2022-08-19T16:24:16.003Z,97447.49
2022-08-19T16:28:10.457Z,97438.67
2022-08-19T16:31:32.054Z,97439.73
2022-08-19T16:35:09.419Z,97447.41
2022-08-19T16:38:49.430Z,97454.66
2022-08-19T16:42:22.811Z,97465.73
2022-08-19T16:46:00.581Z,97473.09
2022-08-19T16:49:53.526Z,97465.97
2022-08-19T16:53:21.033Z,97463.84
2022-08-19T16:57:13.565Z,97457.94
2022-08-19T17:00:35.038Z,97450.86
2022-08-19T17:04:13.572Z,97450.21
2022-08-19T17:08:07.818Z,97455.96
2022-08-19T17:11:33.055Z,97459.48
2022-08-19T17:15:08.413Z,97461.45
2022-08-19T17:19:05.564Z,97463.67
2022-08-19T17:22:30.856Z,97458.35
2022-08-19T17:26:05.485Z,97452.11
2022-08-19T17:29:45.104Z,97454.13
2022-08-19T17:33:36.481Z,97467.70
2022-08-19T17:37:03.640Z,97486.29
2022-08-19T17:41:04.388Z,97501.52
2022-08-19T17:44:27.913Z,97504.30
2022-08-19T17:48:05.960Z,97491.11
2022-08-19T17:51:45.416Z,97466.84
2022-08-19T17:55:20.207Z,97450.41
2022-08-19T17:59:00.486Z,97451.73
2022-08-19T18:02:32.186Z,97460.76
2022-08-19T18:06:09.813Z,97469.73
2022-08-19T18:09:53.157Z,97488.88
2022-08-19T18:13:22.212Z,97498.85
2022-08-19T18:17:01.802Z,97501.64
2022-08-19T18:20:35.703Z,97511.38
2022-08-19T18:24:13.233Z,97543.49
2022-08-19T18:27:56.635Z,97609.94
2022-08-19T18:31:30.082Z,97614.80
2022-08-19T18:35:10.625Z,97629.14
2022-08-19T18:39:06.352Z,97634.74
2022-08-19T18:42:48.864Z,97663.64
2022-08-19T18:46:29.582Z,97655.21
2022-08-19T18:49:57.226Z,97659.38
2022-08-19T18:53:36.190Z,97660.55
2022-08-19T18:57:29.634Z,97661.71
2022-08-19T19:00:52.750Z,97685.19
2022-08-19T19:04:37.322Z,97694.73
2022-08-19T19:08:04.897Z,97688.73
2022-08-19T19:11:46.596Z,97705.98
2022-08-19T19:15:19.034Z,97748.62
2022-08-19T19:18:55.740Z,97760.23
2022-08-19T19:22:32.277Z,97757.08
2022-08-19T19:26:10.908Z,97754.58
2022-08-19T19:30:05.361Z,97737.42
2022-08-19T19:33:28.510Z,97716.30
2022-08-19T19:37:03.899Z,97682.59
2022-08-19T19:40:40.867Z,97649.22
2022-08-19T19:44:30.537Z,97638.80
2022-08-19T19:47:58.612Z,97643.80
2022-08-19T19:51:37.718Z,97647.00
2022-08-19T19:55:28.266Z,97637.98
2022-08-19T19:58:53.469Z,97653.09
2022-08-19T20:02:27.562Z,97661.43
2022-08-19T20:06:03.665Z,97669.58
2022-08-19T20:09:58.792Z,97684.64
2022-08-19T20:13:22.333Z,97683.65
2022-08-19T20:17:00.018Z,97683.37
2022-08-19T20:20:36.062Z,97694.25
2022-08-19T20:24:22.564Z,97685.14
2022-08-19T20:27:49.770Z,97687.79
2022-08-19T20:31:26.954Z,97692.00
2022-08-19T20:35:06.317Z,97695.28
2022-08-19T20:38:58.841Z,97683.60
2022-08-19T20:42:21.542Z,97681.98
2022-08-19T20:45:57.405Z,97679.86
2022-08-19T20:49:53.085Z,97680.31
2022-08-19T20:53:22.939Z,97676.37
2022-08-19T20:57:10.201Z,97663.13
2022-08-19T21:00:56.519Z,97650.77
2022-08-19T21:04:21.585Z,97643.54
2022-08-19T21:08:01.113Z,97648.53
2022-08-19T21:11:32.258Z,97655.72
2022-08-19T21:15:27.085Z,97661.19
2022-08-19T21:18:48.854Z,97658.27
2022-08-19T21:22:45.000Z,97653.17
2022-08-19T21:26:25.437Z,97655.17
2022-08-19T21:29:47.975Z,97647.35
2022-08-19T21:33:43.012Z,97635.38
2022-08-19T21:37:06.019Z,97627.07
2022-08-19T21:40:41.531Z,97621.02
2022-08-19T21:44:37.694Z,97623.94
2022-08-19T21:48:00.019Z,97625.95
2022-08-19T21:51:55.066Z,97627.28
2022-08-19T21:55:38.706Z,97630.43
2022-08-19T21:59:00.025Z,97631.44
2022-08-19T22:02:57.934Z,97615.55
2022-08-19T22:06:19.901Z,97611.37
2022-08-19T22:10:15.470Z,97627.91
2022-08-19T22:13:40.291Z,97632.96
2022-08-19T22:17:14.779Z,97649.90
2022-08-19T22:20:50.608Z,97650.10
2022-08-19T22:24:27.695Z,97666.74
2022-08-19T22:28:06.849Z,97686.70
2022-08-19T22:31:41.090Z,97661.56
2022-08-19T22:35:29.656Z,97663.89
2022-08-19T22:39:13.506Z,97663.66
2022-08-19T22:42:35.572Z,97665.48
2022-08-19T22:46:33.020Z,97672.22
2022-08-19T22:49:55.176Z,97678.26
2022-08-19T22:53:33.736Z,97677.86
2022-08-19T22:57:08.289Z,97679.64
2022-08-19T23:00:45.230Z,97682.91
2022-08-19T23:04:23.153Z,97678.30
2022-08-19T23:07:58.982Z,97684.37
2022-08-19T23:11:41.656Z,97696.08
2022-08-19T23:15:15.896Z,97706.29
2022-08-19T23:18:49.333Z,97724.89
2022-08-19T23:22:26.084Z,97719.73
2022-08-19T23:26:22.260Z,97698.42
2022-08-19T23:30:02.724Z,97689.04
2022-08-19T23:33:51.105Z,97678.35
2022-08-19T23:37:15.654Z,97675.98
2022-08-19T23:40:53.204Z,97685.51
2022-08-19T23:44:28.840Z,97681.63
2022-08-19T23:48:05.921Z,97667.04
2022-08-19T23:51:42.344Z,97657.73
2022-08-19T23:55:20.935Z,97651.15
2022-08-19T23:58:55.164Z,97669.16
